| time (UTC) | temp F | wind direction | speed knots | gust knots | rain 1hr in | rain 24hr in | rain mn in | humidity % | barometer mb |
| 20260503072504 | 73 | 36 | 1.7 | 4.3 | 0.01 | 0.47 | 0.11 | 90 | 1012.4 |
| 20260503072004 | 73 | 20 | 1.7 | 4.3 | 0.04 | 0.47 | 0.11 | 90 | 1012.5 |
| 20260503071504 | 73 | 30 | 0.9 | 4.3 | 0.07 | 0.47 | 0.11 | 90 | 1012.5 |
| 20260503070503 | 73 | 39 | 0.9 | 4.3 | 0.11 | 0.47 | 0.11 | 91 | 1012.8 |
| 20260503055004 | 75 | 246 | 0.9 | 1.7 | 0.00 | 0.36 | 0.00 | 88 | 1013.1 |
| 20260503054504 | 75 | 226 | 0.0 | 2.6 | 0.00 | 0.36 | 0.00 | 88 | 1013.0 |
| 20260503054008 | 75 | 221 | 0.9 | 2.6 | 0.00 | 0.36 | 0.00 | 88 | 1013.1 |
| 20260503053504 | 75 | 223 | 1.7 | 4.3 | 0.00 | 0.36 | 0.00 | 88 | 1013.0 |
| 20260503053004 | 75 | 208 | 1.7 | 4.3 | 0.00 | 0.36 | 0.00 | 88 | 1013.2 |
| 20260503052503 | 75 | 187 | 1.7 | 2.6 | 0.00 | 0.36 | 0.00 | 88 | 1013.4 |
| 20260503052004 | 75 | 205 | 0.9 | 4.3 | 0.00 | 0.36 | 0.00 | 88 | 1013.3 |
| 20260503051503 | 75 | 200 | 0.0 | 0.0 | 0.00 | 0.36 | 0.00 | 88 | 1013.2 |
| 20260503051004 | 75 | 200 | 0.0 | 0.0 | 0.00 | 0.36 | 0.00 | 88 | 1013.3 |
| 20260503050504 | 75 | 200 | 0.0 | 0.0 | 0.00 | 0.36 | 0.00 | 88 | 1013.2 |
| 20260503050005 | 75 | 200 | 0.0 | 0.9 | 0.00 | 0.36 | 0.00 | 88 | 1013.5 |
| 20260503045504 | 75 | 201 | 0.0 | 0.9 | 0.00 | 0.36 | 0.00 | 88 | 1013.5 |
| 20260503045004 | 75 | 172 | 0.0 | 0.0 | 0.00 | 0.36 | 0.00 | 88 | 1013.6 |
| 20260503044504 | 75 | 172 | 0.0 | 0.0 | 0.00 | 0.36 | 0.00 | 88 | 1013.7 |
| 20260503044004 | 75 | 172 | 0.0 | 0.0 | 0.00 | 0.36 | 0.00 | 87 | 1013.6 |
| 20260503043004 | 75 | 172 | 0.0 | 0.0 | 0.00 | 0.36 | 0.00 | 87 | 1013.4 |
| 20260503041503 | 75 | 172 | 0.0 | 1.7 | 0.00 | 0.36 | 0.00 | 87 | 1013.5 |
| 20260503041004 | 75 | 126 | 0.0 | 0.0 | 0.00 | 0.36 | 0.00 | 88 | 1013.5 |
| 20260503040004 | 75 | 132 | 0.9 | 1.7 | 0.00 | 0.36 | 0.00 | 88 | 1013.4 |
| 20260503035504 | 75 | 223 | 0.0 | 0.9 | 0.00 | 0.36 | 0.36 | 88 | 1013.4 |
| 20260503034504 | 75 | 220 | 0.0 | 1.7 | 0.00 | 0.36 | 0.36 | 88 | 1013.2 |
| 20260503034004 | 75 | 210 | 0.0 | 0.0 | 0.00 | 0.36 | 0.36 | 88 | 1013.0 |
| 20260503033504 | 75 | 210 | 0.0 | 1.7 | 0.00 | 0.36 | 0.36 | 87 | 1013.0 |
| 20260503033004 | 75 | 195 | 0.0 | 0.0 | 0.00 | 0.36 | 0.36 | 87 | 1012.9 |
| 20260503032004 | 75 | 171 | 0.0 | 0.9 | 0.00 | 0.36 | 0.36 | 88 | 1012.9 |
| 20260503031504 | 75 | 212 | 0.0 | 0.9 | 0.00 | 0.36 | 0.36 | 87 | 1012.8 |
| 20260503031004 | 75 | 189 | 0.0 | 0.0 | 0.00 | 0.36 | 0.36 | 87 | 1012.7 |
| 20260503030504 | 75 | 189 | 0.0 | 0.0 | 0.00 | 0.36 | 0.36 | 87 | 1012.5 |
| 20260503025004 | 75 | 189 | 0.0 | 0.0 | 0.00 | 0.36 | 0.36 | 87 | 1012.2 |
| 20260503024504 | 75 | 189 | 0.0 | 0.0 | 0.00 | 0.36 | 0.36 | 87 | 1012.4 |
| 20260503024004 | 75 | 189 | 0.0 | 0.0 | 0.00 | 0.36 | 0.36 | 87 | 1012.5 |
| 20260503023504 | 75 | 189 | 0.0 | 0.0 | 0.00 | 0.36 | 0.36 | 87 | 1012.9 |
| 20260503023004 | 75 | 189 | 0.0 | 0.9 | 0.00 | 0.36 | 0.36 | 87 | 1012.8 |
| 20260503022503 | 75 | 219 | 0.0 | 0.0 | 0.00 | 0.36 | 0.36 | 86 | 1012.5 |
| 20260503022004 | 76 | 219 | 0.0 | 0.0 | 0.00 | 0.36 | 0.36 | 86 | 1012.2 |
| 20260503021504 | 76 | 219 | 0.0 | 0.0 | 0.00 | 0.36 | 0.36 | 86 | 1012.2 |
| 20260503021004 | 76 | 219 | 0.0 | 0.0 | 0.00 | 0.36 | 0.36 | 86 | 1012.3 |
| 20260503015504 | 75 | 219 | 0.0 | 0.0 | 0.00 | 0.36 | 0.36 | 86 | 1012.5 |
| 20260503015004 | 75 | 219 | 0.0 | 0.9 | 0.00 | 0.36 | 0.36 | 87 | 1012.5 |
| 20260503014504 | 76 | 203 | 0.0 | 0.0 | 0.00 | 0.36 | 0.36 | 87 | 1012.4 |
| 20260503013503 | 75 | 203 | 0.0 | 0.9 | 0.00 | 0.36 | 0.36 | 87 | 1012.3 |
| 20260503013004 | 75 | 198 | 0.0 | 0.9 | 0.01 | 0.36 | 0.36 | 87 | 1012.3 |
| 20260503012503 | 75 | 147 | 0.9 | 2.6 | 0.01 | 0.36 | 0.36 | 86 | 1012.2 |
| 20260503012004 | 75 | 223 | 1.7 | 2.6 | 0.01 | 0.36 | 0.36 | 86 | 1012.0 |
| 20260503011504 | 75 | 233 | 0.9 | 1.7 | 0.01 | 0.36 | 0.36 | 86 | 1011.6 |
| 20260503011004 | 76 | 47 | 0.9 | 1.7 | 0.01 | 0.36 | 0.36 | 85 | 1010.8 |
| 20260503010004 | 76 | 102 | 0.0 | 0.0 | 0.02 | 0.36 | 0.36 | 85 | 1010.8 |
| 20260503005004 | 76 | 102 | 0.9 | 1.7 | 0.02 | 0.36 | 0.36 | 86 | 1010.8 |
| 20260503004506 | 75 | 192 | 0.0 | 0.0 | 0.02 | 0.36 | 0.36 | 86 | 1011.2 |
| 20260503004004 | 75 | 192 | 0.0 | 0.0 | 0.02 | 0.36 | 0.36 | 86 | 1011.4 |
| 20260503003504 | 75 | 192 | 0.0 | 0.0 | 0.02 | 0.36 | 0.36 | 85 | 1011.2 |
| 20260503003006 | 76 | 192 | 0.0 | 0.0 | 0.01 | 0.35 | 0.35 | 85 | 1010.8 |
| 20260503002504 | 76 | 192 | 0.0 | 0.9 | 0.01 | 0.35 | 0.35 | 85 | 1010.8 |
| 20260503002004 | 76 | 164 | 0.9 | 1.7 | 0.01 | 0.35 | 0.35 | 84 | 1010.6 |
| 20260503001004 | 76 | 51 | 0.9 | 1.7 | 0.01 | 0.35 | 0.35 | 84 | 1010.4 |
| 20260503000504 | 76 | 223 | 0.0 | 1.7 | 0.02 | 0.35 | 0.35 | 84 | 1010.9 |
| 20260503000004 | 76 | 205 | 1.7 | 4.3 | 0.01 | 0.34 | 0.34 | 84 | 1010.9 |
| 20260502235005 | 76 | 254 | 1.7 | 4.3 | 0.01 | 0.34 | 0.34 | 84 | 1010.7 |
| 20260502234504 | 77 | 146 | 0.9 | 1.7 | 0.01 | 0.34 | 0.34 | 83 | 1009.6 |
| 20260502233504 | 77 | 171 | 0.9 | 1.7 | 0.02 | 0.34 | 0.34 | 84 | 1009.7 |
| 20260502233004 | 76 | 291 | 0.9 | 5.2 | 0.02 | 0.34 | 0.34 | 85 | 1010.0 |
| 20260502232005 | 77 | 178 | 0.0 | 0.9 | 0.03 | 0.34 | 0.34 | 84 | 1010.3 |
| 20260502231504 | 77 | 170 | 0.9 | 1.7 | 0.03 | 0.34 | 0.34 | 85 | 1010.4 |
| 20260502231004 | 77 | 202 | 0.0 | 0.0 | 0.04 | 0.34 | 0.34 | 85 | 1010.6 |
| 20260502230504 | 77 | 202 | 0.0 | 0.0 | 0.04 | 0.33 | 0.33 | 85 | 1010.6 |
| 20260502230004 | 77 | 202 | 0.0 | 0.0 | 0.05 | 0.33 | 0.33 | 84 | 1010.4 |
| 20260502225504 | 77 | 202 | 0.0 | 0.0 | 0.06 | 0.33 | 0.33 | 84 | 1010.2 |
| 20260502225004 | 77 | 202 | 0.0 | 0.0 | 0.06 | 0.33 | 0.33 | 84 | 1010.2 |
| 20260502224504 | 77 | 202 | 0.0 | 0.9 | 0.07 | 0.33 | 0.33 | 84 | 1010.4 |
| 20260502224004 | 77 | 150 | 0.0 | 1.7 | 0.06 | 0.32 | 0.32 | 84 | 1010.4 |
| 20260502223504 | 77 | 153 | 0.9 | 1.7 | 0.07 | 0.32 | 0.32 | 85 | 1010.6 |
| 20260502223004 | 77 | 221 | 1.7 | 2.6 | 0.07 | 0.32 | 0.32 | 84 | 1010.5 |
| 20260502222004 | 78 | 147 | 0.9 | 1.7 | 0.06 | 0.31 | 0.31 | 84 | 1010.2 |
| 20260502221504 | 77 | 163 | 0.9 | 0.9 | 0.06 | 0.31 | 0.31 | 84 | 1010.3 |
| 20260502221005 | 77 | 311 | 0.0 | 0.9 | 0.06 | 0.30 | 0.30 | 84 | 1010.2 |
| 20260502220504 | 77 | 86 | 1.7 | 5.2 | 0.13 | 0.29 | 0.29 | 84 | 1010.3 |
| 20260502220004 | 77 | 153 | 1.7 | 2.6 | 0.15 | 0.28 | 0.28 | 84 | 1010.7 |
| 20260502215504 | 78 | 42 | 0.0 | 0.9 | 0.15 | 0.27 | 0.27 | 84 | 1010.1 |
| 20260502215004 | 78 | 254 | 0.9 | 1.7 | 0.17 | 0.27 | 0.27 | 84 | 1010.2 |
| 20260502214503 | 78 | 178 | 0.9 | 1.7 | 0.17 | 0.26 | 0.26 | 84 | 1010.5 |
| 20260502214004 | 78 | 235 | 1.7 | 2.6 | 0.17 | 0.26 | 0.26 | 84 | 1010.3 |
| 20260502213504 | 78 | 38 | 0.0 | 0.9 | 0.16 | 0.25 | 0.25 | 84 | 1009.9 |
| 20260502212504 | 77 | 177 | 0.0 | 2.6 | 0.20 | 0.25 | 0.25 | 85 | 1010.1 |
| 20260502211504 | 76 | 323 | 2.6 | 5.2 | 0.25 | 0.25 | 0.25 | 85 | 1009.7 |
| 20260502211004 | 76 | 14 | 1.7 | 4.3 | 0.24 | 0.24 | 0.24 | 85 | 1009.4 |
| 20260502210504 | 76 | 53 | 0.9 | 1.7 | 0.16 | 0.16 | 0.16 | 84 | 1010.2 |
| 20260502210004 | 77 | 290 | 0.9 | 5.2 | 0.13 | 0.13 | 0.13 | 84 | 1010.5 |
| 20260502205504 | 77 | 337 | 2.6 | 7.8 | 0.12 | 0.12 | 0.12 | 83 | 1010.0 |
| 20260502205004 | 77 | 9 | 0.9 | 4.3 | 0.10 | 0.10 | 0.10 | 82 | 1010.5 |
| 20260502204507 | 77 | 305 | 0.9 | 4.3 | 0.09 | 0.09 | 0.09 | 81 | 1010.1 |
| 20260502204004 | 78 | 326 | 1.7 | 5.2 | 0.09 | 0.09 | 0.09 | 80 | 1009.7 |
| 20260502203004 | 80 | 300 | 1.7 | 2.6 | 0.09 | 0.09 | 0.09 | 76 | 1009.7 |
| 20260502202004 | 84 | 257 | 2.6 | 7.0 | 0.00 | 0.00 | 0.00 | 72 | 1009.5 |
| 20260502201504 | 85 | 183 | 2.6 | 8.7 | 0.00 | 0.00 | 0.00 | 72 | 1009.2 |
| 20260502201004 | 85 | 235 | 3.5 | 7.0 | 0.00 | 0.00 | 0.00 | 72 | 1009.4 |
| 20260502200505 | 85 | 226 | 4.3 | 8.7 | 0.00 | 0.00 | 0.00 | 72 | 1009.4 |
| 20260502200004 | 85 | 221 | 4.3 | 11.3 | 0.00 | 0.00 | 0.00 | 72 | 1009.4 |
| 20260502195504 | 85 | 226 | 6.1 | 8.7 | 0.00 | 0.00 | 0.00 | 72 | 1009.4 |
| 20260502194504 | 84 | 213 | 2.6 | 7.8 | 0.00 | 0.00 | 0.00 | 73 | 1009.2 |
| 20260502194005 | 84 | 211 | 5.2 | 8.7 | 0.00 | 0.00 | 0.00 | 73 | 1009.6 |
| 20260502193004 | 84 | 223 | 6.1 | 10.4 | 0.00 | 0.00 | 0.00 | 72 | 1009.9 |
| 20260502192504 | 84 | 188 | 4.3 | 10.4 | 0.00 | 0.00 | 0.00 | 72 | 1010.1 |
| 20260502191004 | 85 | 228 | 5.2 | 13.0 | 0.00 | 0.00 | 0.00 | 71 | 1010.0 |
| 20260502190504 | 85 | 234 | 3.5 | 12.2 | 0.00 | 0.00 | 0.00 | 70 | 1010.1 |
| 20260502190004 | 85 | 237 | 6.1 | 13.9 | 0.00 | 0.00 | 0.00 | 70 | 1010.1 |
| 20260502185504 | 85 | 226 | 5.2 | 11.3 | 0.00 | 0.00 | 0.00 | 70 | 1010.1 |
| 20260502185004 | 85 | 222 | 7.0 | 12.2 | 0.00 | 0.00 | 0.00 | 70 | 1010.0 |
| 20260502184504 | 85 | 218 | 7.8 | 13.9 | 0.00 | 0.00 | 0.00 | 70 | 1010.2 |
| 20260502183004 | 86 | 227 | 5.2 | 7.8 | 0.00 | 0.00 | 0.00 | 69 | 1010.3 |
| 20260502182504 | 86 | 225 | 4.3 | 12.2 | 0.00 | 0.00 | 0.00 | 68 | 1010.4 |
| 20260502182004 | 86 | 243 | 6.1 | 13.0 | 0.00 | 0.00 | 0.00 | 68 | 1010.3 |
| 20260502181504 | 87 | 245 | 5.2 | 13.9 | 0.00 | 0.00 | 0.00 | 68 | 1010.3 |
| 20260502180504 | 87 | 215 | 7.0 | 13.0 | 0.00 | 0.00 | 0.00 | 67 | 1010.6 |
| 20260502170504 | 87 | 223 | 7.8 | 13.9 | 0.00 | 0.00 | 0.00 | 68 | 1010.8 |
| 20260502164004 | 86 | 231 | 7.0 | 13.0 | 0.00 | 0.00 | 0.00 | 69 | 1011.0 |
| 20260502163504 | 86 | 228 | 7.0 | 14.8 | 0.00 | 0.00 | 0.00 | 70 | 1011.0 |
| 20260502163004 | 86 | 182 | 6.1 | 13.0 | 0.00 | 0.00 | 0.00 | 70 | 1010.9 |
| 20260502162004 | 86 | 219 | 4.3 | 11.3 | 0.00 | 0.00 | 0.00 | 70 | 1011.1 |
| 20260502161504 | 86 | 240 | 4.3 | 11.3 | 0.00 | 0.00 | 0.00 | 69 | 1011.1 |
| 20260502161004 | 86 | 257 | 6.1 | 11.3 | 0.00 | 0.00 | 0.00 | 68 | 1011.1 |
| 20260502160504 | 87 | 238 | 4.3 | 10.4 | 0.00 | 0.00 | 0.00 | 69 | 1011.1 |
| 20260502152004 | 87 | 225 | 6.1 | 13.0 | 0.00 | 0.00 | 0.00 | 68 | 1010.6 |
| 20260502151005 | 86 | 215 | 7.0 | 12.2 | 0.00 | 0.00 | 0.00 | 69 | 1010.8 |
| 20260502150504 | 86 | 194 | 7.8 | 14.8 | 0.00 | 0.00 | 0.00 | 68 | 1010.7 |
| 20260502130504 | 79 | 212 | 5.2 | 10.4 | 0.00 | 0.00 | 0.00 | 84 | 1010.1 |
| 20260502123504 | 76 | 121 | 0.9 | 4.3 | 0.00 | 0.00 | 0.00 | 82 | 1010.2 |
| 20260502122504 | 76 | 140 | 0.9 | 1.7 | 0.00 | 0.00 | 0.00 | 82 | 1010.3 |
| 20260502122004 | 76 | 127 | 0.9 | 1.7 | 0.00 | 0.00 | 0.00 | 82 | 1010.3 |
| 20260502121504 | 75 | 126 | 0.9 | 1.7 | 0.00 | 0.00 | 0.00 | 82 | 1010.3 |
| 20260502121004 | 75 | 42 | 0.9 | 1.7 | 0.00 | 0.00 | 0.00 | 82 | 1010.3 |
| 20260502120504 | 75 | 103 | 0.0 | 0.9 | 0.00 | 0.00 | 0.00 | 83 | 1010.3 |
| 20260502115506 | 74 | 121 | 0.9 | 1.7 | 0.00 | 0.00 | 0.00 | 83 | 1010.2 |
| 20260502115004 | 74 | 132 | 0.9 | 1.7 | 0.00 | 0.00 | 0.00 | 83 | 1010.2 |
| 20260502114504 | 74 | 115 | 0.9 | 1.7 | 0.00 | 0.00 | 0.00 | 83 | 1010.3 |
| 20260502114004 | 74 | 108 | 0.9 | 1.7 | 0.00 | 0.00 | 0.00 | 83 | 1010.2 |
| 20260502113004 | 74 | 108 | 0.0 | 0.9 | 0.00 | 0.00 | 0.00 | 83 | 1010.3 |
| 20260502112504 | 74 | 106 | 0.0 | 0.9 | 0.00 | 0.00 | 0.00 | 84 | 1010.2 |
| 20260502111004 | 73 | 51 | 0.0 | 0.0 | 0.00 | 0.00 | 0.00 | 84 | 1010.2 |
| 20260502110504 | 73 | 51 | 0.0 | 0.9 | 0.00 | 0.00 | 0.00 | 84 | 1010.1 |
| 20260502110004 | 73 | 88 | 0.0 | 1.7 | 0.00 | 0.00 | 0.00 | 84 | 1009.9 |
| 20260502105504 | 73 | 118 | 0.9 | 4.3 | 0.00 | 0.00 | 0.00 | 84 | 1009.9 |
| 20260502105005 | 73 | 133 | 1.7 | 2.6 | 0.00 | 0.00 | 0.00 | 84 | 1009.9 |
| 20260502104004 | 73 | 140 | 0.9 | 2.6 | 0.00 | 0.00 | 0.00 | 84 | 1010.0 |
| 20260502103504 | 73 | 127 | 0.9 | 1.7 | 0.00 | 0.00 | 0.00 | 84 | 1010.0 |
| 20260502102504 | 74 | 117 | 0.0 | 1.7 | 0.00 | 0.00 | 0.00 | 83 | 1010.0 |
| 20260502102004 | 74 | 117 | 0.0 | 0.9 | 0.00 | 0.00 | 0.00 | 83 | 1010.0 |
| 20260502101503 | 74 | 132 | 0.9 | 1.7 | 0.00 | 0.00 | 0.00 | 83 | 1010.2 |
| 20260502101005 | 74 | 119 | 0.0 | 0.9 | 0.00 | 0.00 | 0.00 | 83 | 1010.3 |
| 20260502100505 | 74 | 109 | 0.0 | 0.9 | 0.00 | 0.00 | 0.00 | 83 | 1010.4 |
| 20260502091504 | 74 | 198 | 0.0 | 0.0 | 0.00 | 0.00 | 0.00 | 82 | 1010.6 |
| 20260502091004 | 74 | 198 | 0.0 | 0.0 | 0.00 | 0.00 | 0.00 | 82 | 1010.4 |
| 20260502090504 | 74 | 198 | 0.0 | 0.0 | 0.00 | 0.00 | 0.00 | 82 | 1010.5 |